Mac — WDJ3345 — position and weather

sailwx.info

Track history (hours):
 
Tides and Currents Weather Stations Pressure Air Temp Water Temp Dewpoint Dewpoint Depression Visibility Wind Speed Wind Dir Waves Ship Positions

Mac

Owner: Goodall, Tammy, Brooklyn, NY. More information available from US FCC via Universal Licensing System and Coast Guard Vessel Documentation Center.

Last reported at 2018-Feb-17 15:30 UTC. Time now 2018-Feb-20 05:14 UTC.
Position N 23°31' W 075°45'.

Length 17 m.

Type: Pleasure craft. MMSI: 367767120.

Date/timePositionNaut miles runAvg speedWind from/ knotsBaromVisibWave heightAir tempDewpointWater temp
2018-Feb-17 15:30N 23°31' W 075°45'0 0.0
2018-Feb-17 15:00N 23°31' W 075°45'0 0.0
2018-Feb-17 14:30N 23°31' W 075°45'0 0.0
2018-Feb-15 18:51N 23°31' W 075°45'0 0.3
2018-Feb-15 18:30N 23°31' W 075°45'2 3.2
2018-Feb-15 18:00N 23°32' W 075°46'2 4.9
2018-Feb-15 17:30N 23°33' W 075°48'2 4.9
2018-Feb-15 17:00N 23°35' W 075°50'4 7.8
2018-Feb-15 16:30N 23°38' W 075°53'3 6.8
2018-Feb-15 16:00N 23°40' W 075°56'3 6.9
2018-Feb-15 15:30N 23°43' W 075°59'4 7.5
2018-Feb-15 15:00N 23°45' W 076°02'4 7.6
2018-Feb-15 14:30N 23°47' W 076°05'4 7.3
2018-Feb-15 14:00N 23°50' W 076°08'6 4.6
2018-Feb-15 12:36N 23°52' W 076°14'0 5.0
2018-Feb-15 12:30N 23°52' W 076°15'0 0.1
2018-Feb-15 12:00N 23°52' W 076°15'0 0.0
2018-Feb-14 16:55N 23°52' W 076°15'0 0.0
2018-Feb-13 21:12N 23°52' W 076°15'0 0.0
2018-Feb-13 16:08N 23°52' W 076°15'0 0.0
2018-Feb-13 15:59N 23°52' W 076°15'0 0.0
2018-Feb-13 15:29N 23°52' W 076°15'1 1.8
2018-Feb-13 15:00N 23°53' W 076°15'2 4.3
2018-Feb-13 14:28N 23°55' W 076°17'2 4.4
2018-Feb-13 14:00N 23°56' W 076°19'2 4.2
2018-Feb-13 13:29N 23°58' W 076°20'1 0.0
2018-Feb-12 17:21N 23°59' W 076°20'1 3.5
2018-Feb-12 16:56N 23°59' W 076°22'8 0.2
2018-Feb-10 21:58N 24°06' W 076°24'  
2018-Feb-08 16:30N 24°09' W 076°28'  
Track history (hours):
 
Tides and Currents Weather Stations Pressure Air Temp Water Temp Dewpoint Dewpoint Depression Visibility Wind Speed Wind Dir Waves Ship Positions

Mac

Owner: Goodall, Tammy, Brooklyn, NY. More information available from US FCC via Universal Licensing System and Coast Guard Vessel Documentation Center.

Last reported at 2018-Feb-17 15:30 UTC. Time now 2018-Feb-20 05:14 UTC.
Position N 23°31' W 075°45'.

Length 17 m.

Type: Pleasure craft. MMSI: 367767120.

Date/timePositionNaut miles runAvg speedWind from/ knotsBaromVisibWave heightAir tempDewpointWater temp
2018-Feb-17 15:30N 23°31' W 075°45'0 0.0
2018-Feb-17 15:00N 23°31' W 075°45'0 0.0
2018-Feb-17 14:30N 23°31' W 075°45'0 0.0
2018-Feb-15 18:51N 23°31' W 075°45'0 0.3
2018-Feb-15 18:30N 23°31' W 075°45'2 3.2
2018-Feb-15 18:00N 23°32' W 075°46'2 4.9
2018-Feb-15 17:30N 23°33' W 075°48'2 4.9
2018-Feb-15 17:00N 23°35' W 075°50'4 7.8
2018-Feb-15 16:30N 23°38' W 075°53'3 6.8
2018-Feb-15 16:00N 23°40' W 075°56'3 6.9
2018-Feb-15 15:30N 23°43' W 075°59'4 7.5
2018-Feb-15 15:00N 23°45' W 076°02'4 7.6
2018-Feb-15 14:30N 23°47' W 076°05'4 7.3
2018-Feb-15 14:00N 23°50' W 076°08'6 4.6
2018-Feb-15 12:36N 23°52' W 076°14'0 5.0
2018-Feb-15 12:30N 23°52' W 076°15'0 0.1
2018-Feb-15 12:00N 23°52' W 076°15'0 0.0
2018-Feb-14 16:55N 23°52' W 076°15'0 0.0
2018-Feb-13 21:12N 23°52' W 076°15'0 0.0
2018-Feb-13 16:08N 23°52' W 076°15'0 0.0
2018-Feb-13 15:59N 23°52' W 076°15'0 0.0
2018-Feb-13 15:29N 23°52' W 076°15'1 1.8
2018-Feb-13 15:00N 23°53' W 076°15'2 4.3
2018-Feb-13 14:28N 23°55' W 076°17'2 4.4
2018-Feb-13 14:00N 23°56' W 076°19'2 4.2
2018-Feb-13 13:29N 23°58' W 076°20'1 0.0
2018-Feb-12 17:21N 23°59' W 076°20'1 3.5
2018-Feb-12 16:56N 23°59' W 076°22'8 0.2
2018-Feb-10 21:58N 24°06' W 076°24'  
2018-Feb-08 16:30N 24°09' W 076°28'  

Dump ship's entire track history